Time;durP1;ratioP1;P1;durP2;ratioP2;P2;SDS_P1;SDS_P2;PMS_P1;PMS_P2;Temp;Humidity;BMP_temperature;BMP_pressure;BME280_temperature;BME280_humidity;BME280_pressure;Samples;Min_cycle;Max_cycle;Signal;HPM_P1;HPM_P2
2022/10/05 00:00:21;;;;;;;23.17;15.48;;;9.30;99.90;;;;;;5014263;28;20209;-72
2022/10/05 00:02:49;;;;;;;23.98;16.05;;;9.40;99.90;;;;;;5016420;28;20038;-74
2022/10/05 00:05:24;;;;;;;24.65;15.88;;;9.40;99.90;;;;;;5015782;28;20037;-73
2022/10/05 00:07:52;;;;;;;21.45;15.18;;;9.20;99.90;;;;;;5018780;28;20090;-76
2022/10/05 00:10:20;;;;;;;20.88;15.80;;;9.10;99.90;;;;;;5015060;28;20045;-72
2022/10/05 00:12:47;;;;;;;25.63;15.40;;;8.90;99.90;;;;;;5000729;28;20145;-74
2022/10/05 00:15:17;;;;;;;26.20;16.65;;;8.90;99.90;;;;;;5003483;28;20053;-73
2022/10/05 00:17:44;;;;;;;26.75;17.30;;;9.00;99.90;;;;;;5018004;28;20075;-76
2022/10/05 00:20:20;;;;;;;28.00;16.88;;;8.80;99.90;;;;;;5017378;28;20048;-73
2022/10/05 00:22:48;;;;;;;23.80;17.27;;;8.90;99.90;;;;;;4991898;28;20474;-75
2022/10/05 00:25:20;;;;;;;32.92;18.67;;;9.00;99.90;;;;;;5000761;28;20037;-74
2022/10/05 00:27:56;;;;;;;24.85;17.00;;;8.80;99.90;;;;;;5019567;28;20081;-75
2022/10/05 00:30:25;;;;;;;32.45;18.38;;;8.80;99.90;;;;;;4995349;28;20068;-75
2022/10/05 00:32:52;;;;;;;30.52;17.88;;;8.90;99.90;;;;;;5015340;28;20128;-76
2022/10/05 00:35:27;;;;;;;27.83;18.02;;;8.90;99.90;;;;;;5012278;28;20514;-74
2022/10/05 00:37:54;;;;;;;26.45;17.52;;;8.90;99.90;;;;;;5004038;28;20037;-74
2022/10/05 00:40:37;;;;;;;27.38;17.60;;;8.90;99.90;;;;;;5013432;28;20045;-74
2022/10/05 00:43:22;;;;;;;25.17;16.55;;;8.90;99.90;;;;;;4998617;28;20056;-73
2022/10/05 00:46:24;;;;;;;24.75;16.00;;;9.00;99.90;;;;;;5017884;28;20412;-73
2022/10/05 00:49:10;;;;;;;31.02;16.38;;;9.00;99.90;;;;;;5001105;28;20045;-73
2022/10/05 00:51:40;;;;;;;27.17;16.52;;;9.10;99.90;;;;;;5016232;28;20095;-74
2022/10/05 00:54:29;;;;;;;25.55;15.00;;;9.10;99.90;;;;;;5016077;28;20731;-74
2022/10/05 00:57:25;;;;;;;29.63;17.33;;;9.20;99.90;;;;;;5020824;28;20778;-77
2022/10/05 00:59:58;;;;;;;;;;;9.20;99.90;;;;;;5013305;28;20137;-73
2022/10/05 01:02:54;;;;;;;23.50;16.10;;;9.40;99.90;;;;;;5011411;28;19943;-74
2022/10/05 01:05:50;;;;;;;25.88;16.30;;;9.30;99.90;;;;;;4992975;28;20060;-75
2022/10/05 01:08:50;;;;;;;23.20;16.65;;;9.20;99.90;;;;;;5013422;28;20064;-78
2022/10/05 01:11:33;;;;;;;21.10;15.68;;;9.10;99.90;;;;;;5014406;28;20484;-77
2022/10/05 01:14:23;;;;;;;25.50;16.98;;;9.10;99.90;;;;;;5024598;28;20048;-79
2022/10/05 01:16:53;;;;;;;27.67;16.55;;;9.10;99.90;;;;;;5033627;22;20048;-75
2022/10/05 01:19:48;;;;;;;26.98;17.17;;;9.10;99.90;;;;;;4971285;28;20611;-75
2022/10/05 01:22:36;;;;;;;27.95;17.67;;;9.20;99.90;;;;;;4968316;28;20043;-75
2022/10/05 01:25:22;;;;;;;25.33;16.98;;;9.20;99.90;;;;;;4966647;28;20106;-75
2022/10/05 01:28:03;;;;;;;27.25;17.13;;;9.10;99.90;;;;;;4967287;28;20268;-75
2022/10/05 01:30:38;;;;;;;31.15;18.98;;;9.20;99.90;;;;;;4985809;28;20531;-75
2022/10/05 01:33:21;;;;;;;29.65;18.15;;;9.20;99.90;;;;;;4954613;28;20052;-75
2022/10/05 01:36:01;;;;;;;28.88;17.92;;;9.30;99.90;;;;;;4964582;28;20037;-75
2022/10/05 01:39:00;;;;;;;28.73;18.90;;;9.40;99.90;;;;;;4970656;28;20059;-75
2022/10/05 01:41:47;;;;;;;31.40;18.75;;;9.40;99.90;;;;;;4970016;28;20092;-75
2022/10/05 01:44:23;;;;;;;26.23;17.88;;;9.40;99.90;;;;;;4963764;28;20042;-76
2022/10/05 01:47:02;;;;;;;29.42;17.52;;;9.50;99.90;;;;;;4959463;28;20070;-75
2022/10/05 01:49:55;;;;;;;30.20;18.13;;;9.60;99.90;;;;;;4960261;28;20046;-75
2022/10/05 01:52:31;;;;;;;24.48;18.80;;;9.60;99.90;;;;;;4970626;28;20105;-75
2022/10/05 01:55:14;;;;;;;27.48;17.95;;;9.50;99.90;;;;;;4955661;28;20137;-75
2022/10/05 01:58:14;;;;;;;27.17;18.67;;;9.50;99.90;;;;;;4970362;28;20124;-75
2022/10/05 02:01:03;;;;;;;30.33;17.88;;;9.50;99.90;;;;;;4983418;28;20070;-75
2022/10/05 02:03:36;;;;;;;24.70;16.42;;;9.50;99.90;;;;;;4984175;28;20081;-75
2022/10/05 02:06:32;;;;;;;24.20;17.83;;;9.70;99.90;;;;;;4964174;28;20867;-74
2022/10/05 02:09:12;;;;;;;26.42;18.33;;;9.70;99.90;;;;;;4957655;28;20690;-76
2022/10/05 02:11:44;;;;;;;25.83;16.75;;;9.80;99.90;;;;;;4973350;28;20586;-74
2022/10/05 02:14:14;;;;;;;26.55;16.65;;;9.90;99.90;;;;;;4965976;28;20678;-75
2022/10/05 02:16:50;;;;;;;22.85;17.58;;;9.90;99.90;;;;;;4946064;28;20134;-74
2022/10/05 02:19:40;;;;;;;23.58;18.50;;;9.90;99.90;;;;;;4958042;28;20470;-74
2022/10/05 02:22:28;;;;;;;22.95;17.00;;;9.90;99.90;;;;;;4969257;28;20053;-73
2022/10/05 02:25:01;;;;;;;24.58;17.65;;;10.00;99.90;;;;;;4953713;28;20046;-76
2022/10/05 02:27:48;;;;;;;25.45;16.95;;;10.00;99.90;;;;;;4961581;28;20038;-77
2022/10/05 02:30:17;;;;;;;21.30;18.02;;;10.00;99.90;;;;;;4965272;28;20796;-78
2022/10/05 02:32:58;;;;;;;24.48;18.67;;;10.00;99.90;;;;;;4952985;28;20054;-74
2022/10/05 02:35:25;;;;;;;26.98;18.92;;;10.10;99.90;;;;;;4959310;28;20052;-74
2022/10/05 02:38:13;;;;;;;26.73;18.38;;;10.10;99.90;;;;;;4960292;28;20158;-74
2022/10/05 02:41:09;;;;;;;26.48;18.17;;;10.10;99.90;;;;;;4953476;28;20046;-75
2022/10/05 02:43:58;;;;;;;20.95;17.88;;;10.10;99.90;;;;;;4940742;28;20435;-75
2022/10/05 02:46:35;;;;;;;22.95;18.30;;;10.20;99.90;;;;;;4987943;28;20042;-74
2022/10/05 02:49:07;;;;;;;31.10;20.63;;;10.30;99.90;;;;;;4975778;28;20464;-76
2022/10/05 02:51:54;;;;;;;30.05;18.92;;;10.20;99.90;;;;;;4969851;28;20124;-75
2022/10/05 02:54:30;;;;;;;25.45;19.08;;;10.20;99.90;;;;;;4957978;28;20046;-75
2022/10/05 02:56:59;;;;;;;20.55;17.13;;;10.20;99.90;;;;;;4969594;28;20049;-77
2022/10/05 02:59:37;;;;;;;23.98;18.88;;;10.30;99.90;;;;;;4972101;28;20070;-77
2022/10/05 03:02:21;;;;;;;27.65;18.38;;;10.10;99.90;;;;;;4980031;28;20522;-80
2022/10/05 03:05:07;;;;;;;27.85;20.27;;;10.10;99.90;;;;;;4973810;28;20039;-76
2022/10/05 03:07:46;;;;;;;24.65;18.35;;;10.20;99.90;;;;;;4955769;28;20489;-74
2022/10/05 03:10:35;;;;;;;29.83;19.50;;;10.10;99.90;;;;;;4973248;28;20045;-78
2022/10/05 03:13:16;;;;;;;26.55;19.63;;;10.10;99.90;;;;;;4979201;28;20052;-77
2022/10/05 03:15:58;;;;;;;26.15;19.20;;;10.10;99.90;;;;;;4970374;28;20042;-77
2022/10/05 03:18:35;;;;;;;21.58;17.85;;;10.10;99.90;;;;;;4965917;28;20487;-76
2022/10/05 03:21:20;;;;;;;21.60;18.90;;;10.10;99.90;;;;;;4969944;28;20561;-76
2022/10/05 03:24:31;;;;;;;22.08;17.10;;;10.20;99.90;;;;;;4953919;28;20468;-77
2022/10/05 03:27:07;;;;;;;30.45;16.95;;;10.30;99.90;;;;;;4977938;28;20041;-77
2022/10/05 03:29:34;;;;;;;23.75;18.00;;;10.30;99.90;;;;;;4972999;28;20092;-76
2022/10/05 03:32:24;;;;;;;23.10;17.00;;;10.40;99.90;;;;;;4968081;28;20042;-76
2022/10/05 03:35:29;;;;;;;22.83;16.67;;;10.40;99.90;;;;;;4965567;28;20138;-78
2022/10/05 03:38:25;;;;;;;24.65;17.48;;;10.40;99.90;;;;;;4946256;28;20038;-76
2022/10/05 03:41:10;;;;;;;42.65;19.10;;;10.40;99.90;;;;;;4948293;28;20165;-77
2022/10/05 03:44:31;;;;;;;21.73;16.23;;;10.50;99.90;;;;;;4978333;28;20099;-78
2022/10/05 03:47:22;;;;;;;19.80;15.90;;;10.50;99.90;;;;;;4960716;28;20046;-76
2022/10/05 03:49:55;;;;;;;26.13;17.00;;;10.50;99.90;;;;;;4982001;28;20042;-76
2022/10/05 03:52:34;;;;;;;21.67;16.05;;;10.50;99.90;;;;;;4976393;28;20113;-77
2022/10/05 03:55:21;;;;;;;23.00;15.85;;;10.50;99.90;;;;;;4966618;28;20065;-78
2022/10/05 03:57:49;;;;;;;21.73;15.50;;;10.60;99.90;;;;;;4958064;28;20042;-78
2022/10/05 04:00:27;;;;;;;16.65;14.85;;;10.60;99.90;;;;;;4963684;28;20046;-77
2022/10/05 04:03:17;;;;;;;21.33;15.35;;;10.70;99.90;;;;;;4959769;28;20483;-75
2022/10/05 04:05:52;;;;;;;24.88;16.58;;;10.70;99.90;;;;;;4976893;28;20495;-78
2022/10/05 04:08:46;;;;;;;24.67;17.80;;;10.70;99.90;;;;;;4973161;28;20042;-78
2022/10/05 04:11:26;;;;;;;25.13;17.90;;;10.70;99.90;;;;;;4983431;28;20043;-77
2022/10/05 04:14:25;;;;;;;20.27;18.08;;;10.70;99.90;;;;;;4950187;28;20051;-76
2022/10/05 04:17:05;;;;;;;23.83;18.33;;;10.70;99.90;;;;;;4954167;28;20069;-77
2022/10/05 04:19:43;;;;;;;22.00;18.02;;;10.70;99.90;;;;;;4971113;28;20096;-77
2022/10/05 04:22:10;;;;;;;22.75;18.67;;;10.60;99.90;;;;;;4976958;28;20046;-77
2022/10/05 04:24:48;;;;;;;22.70;18.27;;;10.60;99.90;;;;;;4956135;28;20039;-78
2022/10/05 04:27:27;;;;;;;23.75;18.00;;;10.60;99.90;;;;;;4973987;28;20122;-78
2022/10/05 04:30:10;;;;;;;26.77;18.55;;;10.50;99.90;;;;;;4963564;28;20049;-78
2022/10/05 04:32:42;;;;;;;22.73;18.63;;;10.50;99.90;;;;;;4992911;28;20038;-77
2022/10/05 04:35:29;;;;;;;22.00;18.75;;;10.50;99.90;;;;;;4960673;28;20046;-78
2022/10/05 04:38:06;;;;;;;25.25;18.45;;;10.50;99.90;;;;;;4971876;28;20045;-78
2022/10/05 04:40:40;;;;;;;23.95;19.23;;;10.50;99.90;;;;;;4962163;28;20052;-77
2022/10/05 04:43:18;;;;;;;26.73;20.27;;;10.40;99.90;;;;;;4955757;28;20039;-78
2022/10/05 04:46:14;;;;;;;22.75;20.13;;;10.30;99.90;;;;;;4991627;28;20049;-76
2022/10/05 04:49:13;;;;;;;28.88;20.73;;;10.30;99.90;;;;;;4968483;28;20237;-77
2022/10/05 04:52:08;;;;;;;25.92;19.27;;;10.30;99.90;;;;;;4983982;28;20548;-75
2022/10/05 04:54:52;;;;;;;26.70;18.83;;;10.30;99.90;;;;;;4956801;28;20456;-76
2022/10/05 04:57:29;;;;;;;21.88;18.60;;;10.30;99.90;;;;;;4966047;28;20042;-77
2022/10/05 05:00:04;;;;;;;24.23;18.30;;;10.20;99.90;;;;;;4960590;28;20205;-77
2022/10/05 05:02:50;;;;;;;25.92;19.92;;;10.10;99.90;;;;;;4970973;28;20054;-77
2022/10/05 05:05:27;;;;;;;;;;;10.00;99.90;;;;;;4975310;28;20563;-78
2022/10/05 05:08:17;;;;;;;25.23;19.52;;;10.00;99.90;;;;;;4967918;28;20335;-79
2022/10/05 05:11:05;;;;;;;26.73;19.77;;;9.90;99.90;;;;;;4944158;28;20050;-78
2022/10/05 05:13:47;;;;;;;25.40;19.73;;;9.90;99.90;;;;;;4959777;28;20058;-75
2022/10/05 05:16:31;;;;;;;33.50;19.67;;;9.80;99.90;;;;;;4949209;28;20076;-78
2022/10/05 05:19:34;;;;;;;29.88;20.40;;;9.70;99.90;;;;;;4945808;28;20034;-74
2022/10/05 05:22:28;;;;;;;34.67;20.75;;;9.60;99.90;;;;;;4965427;28;20039;-75
2022/10/05 05:25:30;;;;;;;28.45;20.40;;;9.50;99.90;;;;;;4976254;28;20126;-76
2022/10/05 05:28:24;;;;;;;29.67;20.23;;;9.50;99.90;;;;;;4985977;28;20156;-77
2022/10/05 05:30:55;;;;;;;33.80;22.13;;;9.50;99.90;;;;;;4961790;28;20059;-75
2022/10/05 05:33:48;;;;;;;32.10;21.15;;;9.40;99.90;;;;;;4954905;28;20132;-76
2022/10/05 05:36:36;;;;;;;30.13;20.95;;;9.30;99.90;;;;;;4987082;28;20031;-75
2022/10/05 05:39:18;;;;;;;31.33;21.25;;;9.30;99.90;;;;;;4967555;28;20496;-77
2022/10/05 05:41:59;;;;;;;33.63;20.90;;;9.20;99.90;;;;;;4962666;28;20046;-76
2022/10/05 05:44:49;;;;;;;34.83;20.52;;;9.20;99.90;;;;;;4970192;28;20042;-75
2022/10/05 05:47:36;;;;;;;35.33;20.50;;;9.20;99.90;;;;;;4961213;28;20046;-75
2022/10/05 05:50:31;;;;;;;30.95;19.38;;;9.20;99.90;;;;;;4955917;28;20054;-77
2022/10/05 05:53:12;;;;;;;31.30;20.42;;;9.10;99.90;;;;;;4959007;28;20074;-78
2022/10/05 05:55:43;;;;;;;39.95;22.77;;;9.00;99.90;;;;;;4968819;28;20069;-76
2022/10/05 05:58:22;;;;;;;38.67;23.42;;;9.00;99.90;;;;;;4961305;28;20038;-75
2022/10/05 06:00:58;;;;;;;38.05;23.05;;;9.00;99.90;;;;;;4953178;28;20226;-78
2022/10/05 06:03:39;;;;;;;36.28;23.38;;;9.00;99.90;;;;;;4923700;28;20054;-76
2022/10/05 06:06:11;;;;;;;45.20;24.15;;;9.00;99.90;;;;;;4925113;29;20039;-76
2022/10/05 06:08:40;;;;;;;43.53;24.98;;;9.00;99.90;;;;;;4922858;28;20043;-76
2022/10/05 06:11:54;;;;;;;37.10;23.45;;;9.00;99.90;;;;;;4918104;28;20633;-76
2022/10/05 06:14:36;;;;;;;45.65;23.70;;;9.00;99.90;;;;;;4953032;28;20063;-75
2022/10/05 06:17:19;;;;;;;42.55;25.33;;;9.00;99.90;;;;;;4941367;28;20043;-76
2022/10/05 06:19:49;;;;;;;46.90;25.40;;;8.90;99.90;;;;;;4940442;28;20043;-76
2022/10/05 06:22:22;;;;;;;40.70;24.05;;;8.90;99.90;;;;;;4936148;28;20031;-76
2022/10/05 06:24:58;;;;;;;44.45;26.92;;;8.90;99.90;;;;;;4929347;29;20145;-76
2022/10/05 06:27:36;;;;;;;46.13;26.98;;;8.90;99.90;;;;;;4905875;28;20039;-76
2022/10/05 06:30:14;;;;;;;44.20;26.92;;;8.90;99.90;;;;;;4923957;29;20073;-76
2022/10/05 06:33:03;;;;;;;50.28;28.13;;;8.90;99.90;;;;;;4921561;28;20058;-75
2022/10/05 06:36:08;;;;;;;43.20;26.30;;;9.10;99.90;;;;;;4939277;28;20087;-75
2022/10/05 06:39:12;;;;;;;42.65;26.02;;;9.10;99.90;;;;;;4940581;28;20729;-74
2022/10/05 06:42:13;;;;;;;43.75;26.88;;;9.20;99.90;;;;;;4918509;28;20274;-75
2022/10/05 06:45:28;;;;;;;45.67;26.55;;;9.30;99.90;;;;;;4923788;29;20063;-74
2022/10/05 06:48:36;;;;;;;45.20;26.33;;;9.20;99.90;;;;;;4939036;28;20130;-75
2022/10/05 06:51:42;;;;;;;37.78;22.73;;;9.30;99.90;;;;;;4938967;28;20051;-75
2022/10/05 06:54:42;;;;;;;35.00;22.65;;;9.60;99.90;;;;;;4940200;28;20492;-75
2022/10/05 06:57:26;;;;;;;32.45;21.23;;;9.80;99.90;;;;;;4923585;29;20752;-75
2022/10/05 07:00:13;;;;;;;27.42;18.63;;;10.10;99.90;;;;;;4940728;28;20047;-74
2022/10/05 07:03:01;;;;;;;34.47;19.77;;;10.40;99.90;;;;;;4953923;28;20043;-75
2022/10/05 07:06:16;;;;;;;31.95;18.52;;;10.60;99.90;;;;;;4953258;28;20691;-75
2022/10/05 07:09:02;;;;;;;28.73;17.63;;;10.70;99.90;;;;;;4951191;28;20503;-74
2022/10/05 07:11:52;;;;;;;27.42;18.48;;;10.90;99.90;;;;;;4936070;28;20043;-74
2022/10/05 07:14:49;;;;;;;25.77;18.42;;;11.00;99.90;;;;;;4937600;28;20512;-74
2022/10/05 07:17:35;;;;;;;22.98;18.35;;;11.20;99.90;;;;;;4940116;28;20118;-74
2022/10/05 07:20:12;;;;;;;26.02;18.30;;;11.20;99.90;;;;;;4927770;28;20495;-74
2022/10/05 07:22:54;;;;;;;28.25;19.15;;;11.30;99.90;;;;;;4922660;28;20044;-75
2022/10/05 07:25:30;;;;;;;25.17;19.38;;;11.30;99.90;;;;;;4921474;28;20106;-75
2022/10/05 07:28:38;;;;;;;23.20;19.23;;;11.40;99.90;;;;;;4938718;28;20071;-75
2022/10/05 07:31:55;;;;;;;23.75;20.20;;;11.60;99.90;;;;;;4902514;28;20043;-75
2022/10/05 07:34:25;;;;;;;27.23;18.92;;;11.70;99.90;;;;;;4901584;29;20044;-74
2022/10/05 07:40:16;;;;;;;26.45;21.02;;;12.10;99.90;;;;;;4926292;29;20272;-75
2022/10/05 07:43:31;;;;;;;22.17;19.85;;;12.20;99.90;;;;;;4942503;28;20082;-75
2022/10/05 07:46:52;;;;;;;23.95;20.77;;;12.20;99.90;;;;;;4940124;28;20090;-74
2022/10/05 07:49:31;;;;;;;23.35;20.60;;;12.20;99.90;;;;;;4958822;28;20055;-75
2022/10/05 07:52:10;;;;;;;25.13;22.48;;;12.30;99.90;;;;;;4941550;28;20530;-75
2022/10/05 07:54:55;;;;;;;23.25;20.70;;;12.40;99.90;;;;;;4957249;28;20140;-74
2022/10/05 07:57:32;;;;;;;25.67;22.52;;;12.50;99.90;;;;;;4940800;28;20046;-76
2022/10/05 08:00:50;;;;;;;25.50;23.02;;;12.60;99.90;;;;;;4940419;28;20415;-75
2022/10/05 08:03:39;;;;;;;24.95;22.38;;;12.70;99.90;;;;;;4914142;28;20415;-74
2022/10/05 08:06:33;;;;;;;23.60;21.27;;;12.80;99.90;;;;;;4944212;28;20135;-76
2022/10/05 08:09:31;;;;;;;21.55;19.42;;;13.00;99.90;;;;;;4919251;29;20043;-75
2022/10/05 08:12:26;;;;;;;22.23;20.30;;;13.20;99.90;;;;;;4944597;28;20616;-75
2022/10/05 08:15:15;;;;;;;22.13;20.27;;;13.30;99.90;;;;;;4939947;28;20078;-76
2022/10/05 08:17:57;;;;;;;22.10;20.35;;;13.50;99.90;;;;;;4942524;28;20102;-75
2022/10/05 08:20:41;;;;;;;22.20;20.52;;;13.60;99.90;;;;;;4942322;28;20057;-75
2022/10/05 08:23:15;;;;;;;22.98;21.10;;;13.70;99.90;;;;;;4942033;28;20047;-75
2022/10/05 08:26:21;;;;;;;24.20;22.20;;;13.70;99.90;;;;;;4925374;28;20078;-74
2022/10/05 08:29:02;;;;;;;24.05;22.13;;;13.70;99.90;;;;;;4931842;28;20503;-75
2022/10/05 08:31:36;;;;;;;24.17;22.33;;;13.80;99.90;;;;;;4940012;28;20520;-74
2022/10/05 08:34:26;;;;;;;25.10;22.80;;;13.80;99.90;;;;;;4942856;28;20043;-75
2022/10/05 08:36:59;;;;;;;25.17;23.13;;;13.80;99.90;;;;;;4943962;28;20057;-75
2022/10/05 08:39:30;;;;;;;24.30;22.50;;;13.90;99.90;;;;;;4955997;28;20047;-75
2022/10/05 08:42:09;;;;;;;23.77;22.02;;;14.00;99.90;;;;;;4942808;28;20043;-75
2022/10/05 08:45:00;;;;;;;23.55;21.73;;;14.00;99.90;;;;;;4925096;28;20067;-76
2022/10/05 08:48:05;;;;;;;24.10;21.90;;;14.10;99.90;;;;;;4923466;28;20051;-74
2022/10/05 08:50:47;;;;;;;23.88;21.85;;;14.10;99.90;;;;;;4955310;28;20058;-74
2022/10/05 08:53:19;;;;;;;24.90;23.00;;;14.10;99.90;;;;;;4943271;28;20412;-75
2022/10/05 08:56:03;;;;;;;24.42;22.40;;;14.20;99.90;;;;;;4955887;28;20058;-75
2022/10/05 08:58:51;;;;;;;23.92;22.13;;;14.20;99.90;;;;;;4924402;28;20055;-74
2022/10/05 09:01:39;;;;;;;23.45;21.75;;;14.30;99.90;;;;;;4940479;28;20043;-73
2022/10/05 09:04:22;;;;;;;24.55;22.65;;;14.30;99.90;;;;;;4943573;28;20595;-77
2022/10/05 09:07:16;;;;;;;26.98;24.75;;;14.20;99.90;;;;;;4943307;28;20047;-74
2022/10/05 09:10:07;;;;;;;23.90;21.88;;;14.10;99.90;;;;;;4942276;28;20518;-76
2022/10/05 09:13:14;;;;;;;25.80;23.35;;;14.10;99.90;;;;;;4923509;28;20075;-77
2022/10/05 09:15:59;;;;;;;23.80;22.20;;;14.20;99.90;;;;;;4941422;28;20046;-76
2022/10/05 09:18:38;;;;;;;23.50;21.70;;;14.10;99.90;;;;;;4938922;28;20039;-77
2022/10/05 09:21:34;;;;;;;24.00;22.25;;;14.10;99.90;;;;;;4940678;28;20134;-77
2022/10/05 09:24:45;;;;;;;23.00;21.50;;;14.10;99.90;;;;;;4927375;28;20075;-76
2022/10/05 09:27:16;;;;;;;21.63;20.27;;;14.10;99.90;;;;;;4917903;29;20043;-76
2022/10/05 09:30:20;;;;;;;22.02;20.60;;;14.10;99.90;;;;;;4938945;28;20043;-77
2022/10/05 09:33:27;;;;;;;21.33;19.77;;;14.10;99.90;;;;;;4941472;28;20039;-77
2022/10/05 09:36:21;;;;;;;21.45;19.83;;;14.10;99.90;;;;;;4903973;29;20054;-76
2022/10/05 09:39:13;;;;;;;21.80;20.20;;;14.20;99.90;;;;;;4940304;28;20134;-77
2022/10/05 09:42:20;;;;;;;20.92;19.42;;;14.20;99.90;;;;;;4937826;28;20592;-74
2022/10/05 09:45:34;;;;;;;20.80;19.50;;;14.20;99.90;;;;;;4941173;28;20047;-75
2022/10/05 09:48:16;;;;;;;21.92;20.33;;;14.30;99.90;;;;;;4913914;29;20044;-77
2022/10/05 09:51:01;;;;;;;29.13;26.33;;;14.30;99.90;;;;;;4913921;29;20052;-76
2022/10/05 09:53:48;;;;;;;21.45;19.95;;;14.30;99.90;;;;;;4931489;28;20159;-76
2022/10/05 09:56:38;;;;;;;21.77;20.23;;;14.40;99.90;;;;;;4927712;28;20499;-74
2022/10/05 09:59:35;;;;;;;21.95;20.55;;;14.30;99.90;;;;;;4941908;28;20047;-75
2022/10/05 10:02:21;;;;;;;21.08;19.58;;;14.30;99.90;;;;;;4940951;28;20057;-75
2022/10/05 10:05:12;;;;;;;20.48;19.20;;;14.30;99.90;;;;;;4940744;28;20142;-75
2022/10/05 10:07:56;;;;;;;20.85;19.25;;;14.40;99.90;;;;;;4913076;28;20055;-76
2022/10/05 10:10:22;;;;;;;20.88;19.38;;;14.40;99.90;;;;;;4939901;28;20146;-75
2022/10/05 10:13:16;;;;;;;21.52;20.13;;;14.40;99.90;;;;;;4940289;28;20487;-74
2022/10/05 10:16:01;;;;;;;20.60;19.23;;;14.40;99.90;;;;;;4937974;28;20089;-74
2022/10/05 10:19:02;;;;;;;20.30;19.08;;;14.30;99.90;;;;;;4937556;28;20043;-76
2022/10/05 10:21:29;;;;;;;20.55;19.25;;;14.30;99.90;;;;;;4936294;28;20051;-76
2022/10/05 10:24:20;;;;;;;21.30;19.90;;;14.40;99.90;;;;;;4940815;28;20039;-77
2022/10/05 10:27:18;;;;;;;20.95;19.58;;;14.40;99.90;;;;;;4941811;28;20070;-76
2022/10/05 10:30:23;;;;;;;19.73;18.63;;;14.40;99.90;;;;;;4938755;28;20062;-77
2022/10/05 10:33:27;;;;;;;20.33;19.13;;;14.40;99.90;;;;;;4942299;28;20047;-75
2022/10/05 10:36:12;;;;;;;20.65;19.25;;;14.30;99.90;;;;;;4940731;28;20460;-76
2022/10/05 10:38:39;;;;;;;21.90;20.35;;;14.30;99.90;;;;;;4939135;28;20056;-77
2022/10/05 10:41:24;;;;;;;19.98;18.55;;;14.40;99.90;;;;;;4940418;28;20126;-77
2022/10/05 10:44:28;;;;;;;21.63;19.80;;;14.30;99.90;;;;;;4941952;28;20082;-75
2022/10/05 10:47:31;;;;;;;21.63;20.10;;;14.30;99.90;;;;;;4938241;28;20049;-77
2022/10/05 10:50:27;;;;;;;20.50;19.30;;;14.30;99.90;;;;;;4938222;28;20268;-75
2022/10/05 10:53:28;;;;;;;20.40;19.05;;;14.30;99.90;;;;;;4908840;29;20047;-76
2022/10/05 10:56:34;;;;;;;20.35;18.88;;;14.40;99.90;;;;;;4952083;28;20137;-77
2022/10/05 10:59:26;;;;;;;20.48;18.98;;;14.40;99.90;;;;;;4939202;28;20045;-76
2022/10/05 11:02:06;;;;;;;20.73;19.42;;;14.40;99.90;;;;;;4922235;29;20133;-76
2022/10/05 11:05:02;;;;;;;21.40;20.10;;;14.40;99.90;;;;;;4949766;28;20047;-77
2022/10/05 11:07:38;;;;;;;20.77;19.30;;;14.70;99.90;;;;;;4934976;28;20051;-77
2022/10/05 11:10:28;;;;;;;21.30;19.90;;;14.90;99.90;;;;;;4942244;28;20085;-77
2022/10/05 11:12:58;;;;;;;19.95;18.75;;;15.00;99.90;;;;;;4954526;28;20043;-77
2022/10/05 11:16:03;;;;;;;21.85;20.35;;;15.30;99.90;;;;;;4939975;28;20058;-76
2022/10/05 11:19:01;;;;;;;24.42;22.75;;;15.30;99.90;;;;;;4914205;28;20703;-77
2022/10/05 11:21:53;;;;;;;21.77;20.52;;;15.70;99.90;;;;;;4952760;28;20106;-77
2022/10/05 11:24:42;;;;;;;23.05;21.75;;;16.30;99.90;;;;;;4941854;28;20043;-76
2022/10/05 11:27:32;;;;;;;24.42;22.90;;;16.50;99.90;;;;;;4941728;28;20066;-77
2022/10/05 11:30:21;;;;;;;24.33;22.73;;;16.30;99.90;;;;;;4944642;28;20047;-75
2022/10/05 11:33:23;;;;;;;22.52;21.23;;;16.30;99.90;;;;;;4938482;28;20483;-77
2022/10/05 11:35:50;;;;;;;22.27;20.88;;;16.50;99.90;;;;;;4942649;28;20051;-77
2022/10/05 11:38:28;;;;;;;22.30;20.90;;;16.50;99.90;;;;;;4942546;28;20043;-77
2022/10/05 11:41:30;;;;;;;22.70;21.40;;;16.50;99.90;;;;;;4943296;28;20043;-77
2022/10/05 11:43:59;;;;;;;22.35;20.85;;;16.30;99.90;;;;;;4957089;28;20039;-75
2022/10/05 11:46:35;;;;;;;22.60;21.10;;;16.10;99.90;;;;;;4938008;28;20467;-75
2022/10/05 11:49:11;;;;;;;21.40;20.10;;;16.00;99.90;;;;;;4941804;28;20051;-74
2022/10/05 11:51:53;;;;;;;21.55;20.17;;;16.10;99.90;;;;;;4939964;28;20043;-77
2022/10/05 11:54:42;;;;;;;24.08;22.67;;;16.20;99.90;;;;;;4942163;28;20751;-75
2022/10/05 11:57:43;;;;;;;22.00;20.75;;;16.20;99.90;;;;;;4937112;28;20676;-75
2022/10/05 12:00:15;;;;;;;22.33;20.83;;;16.30;99.90;;;;;;4942818;28;20067;-75
2022/10/05 12:02:42;;;;;;;21.35;20.10;;;16.60;99.90;;;;;;4940752;28;20052;-75
2022/10/05 12:05:20;;;;;;;21.65;20.35;;;16.70;99.90;;;;;;4942780;28;20042;-78
2022/10/05 12:07:49;;;;;;;21.48;19.80;;;16.80;99.90;;;;;;4924952;28;20050;-75
2022/10/05 12:10:54;;;;;;;21.52;20.23;;;16.90;99.90;;;;;;4941653;28;20039;-75
2022/10/05 12:13:20;;;;;;;20.48;19.38;;;17.10;99.90;;;;;;4943316;28;20043;-75
2022/10/05 12:16:18;;;;;;;21.80;20.60;;;17.10;99.90;;;;;;4925976;28;20040;-74
2022/10/05 12:19:14;;;;;;;22.33;20.95;;;17.10;99.90;;;;;;4942097;28;20067;-74
2022/10/05 12:21:48;;;;;;;22.75;21.35;;;17.20;99.90;;;;;;4923196;28;20484;-76
2022/10/05 12:24:27;;;;;;;23.02;21.50;;;17.40;99.90;;;;;;4943252;28;20046;-75
2022/10/05 12:27:11;;;;;;;22.25;21.13;;;17.30;99.90;;;;;;4941076;28;20050;-75
2022/10/05 12:30:09;;;;;;;22.23;20.97;;;17.40;99.90;;;;;;4939587;28;20055;-76
2022/10/05 12:33:07;;;;;;;22.40;21.25;;;17.70;99.90;;;;;;4936856;28;20069;-74
2022/10/05 12:35:54;;;;;;;22.67;21.42;;;17.40;99.90;;;;;;4940051;28;20051;-74
2022/10/05 12:38:43;;;;;;;21.65;20.45;;;17.20;99.90;;;;;;4943257;28;20070;-75
2022/10/05 12:41:13;;;;;;;21.95;20.55;;;17.30;99.90;;;;;;4957963;28;20036;-74
2022/10/05 12:44:01;;;;;;;22.33;20.98;;;17.40;99.90;;;;;;4945811;28;20047;-74
2022/10/05 12:46:33;;;;;;;22.23;20.92;;;17.60;99.90;;;;;;4943395;28;20261;-75
2022/10/05 12:49:44;;;;;;;23.45;21.95;;;17.60;99.90;;;;;;4942995;28;20046;-74
2022/10/05 12:52:32;;;;;;;22.88;21.48;;;17.70;99.90;;;;;;4941047;28;20039;-74
2022/10/05 12:55:27;;;;;;;22.45;21.15;;;17.70;99.90;;;;;;4942772;28;20055;-75
2022/10/05 12:58:12;;;;;;;21.63;20.40;;;17.80;99.90;;;;;;4941913;28;20031;-74
2022/10/05 13:01:07;;;;;;;22.95;21.35;;;17.90;99.90;;;;;;4922850;28;20090;-74
2022/10/05 13:03:38;;;;;;;21.85;20.65;;;17.90;99.90;;;;;;4926600;28;20051;-74
2022/10/05 13:06:16;;;;;;;21.45;20.30;;;17.90;99.90;;;;;;4941458;28;20049;-74
2022/10/05 13:09:07;;;;;;;21.10;20.00;;;18.10;99.90;;;;;;4939787;28;20154;-75
2022/10/05 13:11:54;;;;;;;21.45;20.25;;;18.10;99.90;;;;;;4928435;28;20134;-74
2022/10/05 13:14:30;;;;;;;21.88;20.67;;;18.30;99.90;;;;;;4941283;28;20070;-76
2022/10/05 13:17:03;;;;;;;21.52;20.20;;;18.60;99.90;;;;;;4942744;28;20047;-75
2022/10/05 13:19:45;;;;;;;21.83;20.33;;;18.80;99.90;;;;;;4945637;28;20051;-74
2022/10/05 13:22:21;;;;;;;20.85;19.55;;;18.90;99.90;;;;;;4928555;29;20047;-76
2022/10/05 13:24:53;;;;;;;20.25;19.02;;;19.00;99.90;;;;;;4950736;28;20115;-75
2022/10/05 13:27:27;;;;;;;21.05;19.77;;;19.00;99.90;;;;;;4926120;29;20047;-76
2022/10/05 13:30:12;;;;;;;20.05;18.85;;;19.20;99.90;;;;;;4941512;28;20050;-76
2022/10/05 13:33:06;;;;;;;20.80;19.70;;;19.20;99.90;;;;;;4941168;28;20065;-76
2022/10/05 13:35:57;;;;;;;21.20;19.92;;;19.20;99.90;;;;;;4933203;28;20047;-76
2022/10/05 13:38:46;;;;;;;20.73;19.35;;;19.20;99.90;;;;;;4946724;28;20049;-77
2022/10/05 13:41:38;;;;;;;22.00;20.60;;;19.30;99.90;;;;;;4942030;28;20047;-76
2022/10/05 13:44:22;;;;;;;21.40;20.10;;;19.30;99.90;;;;;;4952624;28;20043;-75
2022/10/05 13:47:11;;;;;;;21.30;20.10;;;19.40;99.90;;;;;;4924251;28;20098;-76
2022/10/05 13:50:01;;;;;;;20.98;19.77;;;19.50;99.90;;;;;;4945825;28;20536;-76
2022/10/05 13:52:43;;;;;;;20.38;19.23;;;19.60;99.90;;;;;;4940860;28;20614;-76
2022/10/05 13:55:31;;;;;;;20.30;19.30;;;19.70;99.90;;;;;;4941853;28;20050;-77
2022/10/05 13:57:58;;;;;;;20.67;19.48;;;19.90;99.90;;;;;;4941380;28;20044;-75
2022/10/05 14:00:25;;;;;;;20.10;19.00;;;19.90;99.90;;;;;;4941544;28;20493;-76
2022/10/05 14:02:55;;;;;;;20.88;19.42;;;20.10;99.90;;;;;;4945714;28;20051;-76
2022/10/05 14:05:23;;;;;;;20.50;19.40;;;20.10;99.90;;;;;;4943290;28;20134;-76